x

Tanner Bank - 121nm West Of San Diego, Ca (46047) Wave Buoy

1:50 - Thu 28th Apr 2016 All times are PDT. -7 hours from GMT.

  • Sig Wave height 11.8ft
  • Swell Direction
  • Peak Period 10s
  • Average Period 7s
  • Wind
    29mph, 36mph gusts
  • Sea Temp 60°f
  • Aire Temp 57°f
  • Sea Pressure 1013.1mb
  • Tanner Bank - 121nm West Of San Diego, Ca
  • Tanner Bank - 121nm West Of San Diego, Ca

More Historic Weather Station data

Upgrade to MSW Pro to gain access to the past 30 days of data for over 8000 Wavebouys and Weather Stations around the globe.

Join Pro

Comparision Forecast

View Surf forecast
   
jue 04/28 1:50 12ft 10s 7s 29 36 mph 1013.1mb 60f 57f
12:50 12ft 11s 7s 27 34 mph 1013.5mb 60f 57f
11:50 11.5ft 10s 7s 31 36 mph 1013.4mb 60f 57f
10:50 12.5ft 10s 7s 29 36 mph 1013.3mb 60f 57f
9:50 12ft 10s 7s 29 34 mph 1013.1mb 60f 57f
8:50 13ft 9s 7s 29 36 mph 1012.9mb 60f 57f
7:50 12ft 9s 7s 31 38 mph 1012.4mb 60f 57f
6:50 12ft 9s 7s 31 40 mph 1011.8mb 60f 57f
5:50 12ft 9s 7s 31 38 mph 1011.3mb 60f 57f
4:50 13ft 9s 7s 29 36 mph 1011mb 60f 57f
3:50 12ft 9s 7s 34 40 mph 1011.1mb 59f 57f
2:50 11.5ft 8s 7s 31 40 mph 1011.5mb 59f 57f
1:50 12.5ft 8s 7s 31 38 mph 1011.7mb 59f 56f
12:50 12ft 8s 6s 29 36 mph 1012.1mb 60f 56f
mié 04/27 11:50 11ft 8s 6s 34 40 mph 1011.9mb 59f 57f
10:50 10.5ft 8s 6s 29 38 mph 1012.1mb 59f 57f
9:50 9.5ft 8s 6s 31 40 mph 1011.7mb 60f 58f
8:50 10ft 8s 6s 31 38 mph 1011.6mb 60f 58f
7:50 9ft 8s 6s 31 38 mph 1011.4mb 60f 58f
6:50 9.5ft 8s 6s 31 36 mph 1011.2mb 61f 59f
5:50 9.5ft 8s 6s 29 34 mph 1011.3mb 61f 60f
4:50 10ft 8s 6s 27 34 mph 1011.5mb 61f 59f
3:50 12ft 8s 7s 31 36 mph 1011.7mb 61f 59f
2:50 11.5ft 9s 7s 31 38 mph 1012.3mb 61f 59f
1:50 12ft 9s 7s 31 36 mph 1012.7mb 61f 59f
12:50 12ft 9s 7s 29 36 mph 1013.2mb 61f 58f
11:50 12.5ft 10s 7s 29 36 mph 1013.4mb 61f 58f
10:50 13ft 8s 7s 29 34 mph 1013.7mb 60f 58f
9:50 13ft 10s 7s 31 36 mph 1013.8mb 60f 58f
8:50 13ft 10s 7s 31 36 mph 1013.5mb 60f 58f
7:50 13.5ft 12s 7s 29 36 mph 1013.4mb 60f 58f
6:50 12ft 9s 7s 29 36 mph 1013.1mb 60f 58f
5:50 14ft 9s 7s 29 36 mph 1013.2mb 60f 58f
4:50 12ft 12s 7s 29 36 mph 1013mb 60f 58f
3:50 12.5ft 13s 7s 27 31 mph 1013.5mb 60f 58f
2:50 12ft 8s 7s 27 31 mph 1013.6mb 60f 58f
1:50 12ft 13s 7s 27 34 mph 1014.6mb 60f 57f
12:50 11.5ft 12s 7s 25 31 mph 1015.2mb 60f 57f
mar 04/26 11:50 12.5ft 14s 7s 27 31 mph 1015.7mb 60f 57f
10:50 12ft 14s 7s 25 29 mph 1016mb 60f 57f
9:50 11ft 11s 7s 22 27 mph 1016.2mb 60f 57f
8:50 13ft 11s 8s 25 29 mph 1015.8mb 60f 57f
7:50 11.5ft 10s 7s 25 29 mph 1015.5mb 60f 57f
6:50 10ft 12s 7s 25 27 mph 1015.7mb 60f 57f
5:50 12.5ft 11s 8s 20 25 mph 1016mb 60f 58f
4:50 12ft 11s 7s 25 29 mph 1015.9mb 60f 57f
3:50 12.5ft 11s 8s 22 27 mph 1016mb 60f 57f
2:50 12.5ft 11s 8s 22 27 mph 1016.5mb 59f 57f
1:50 12ft 11s 7s 22 27 mph 1016.9mb 59f 57f
12:50 13ft 11s 8s 22 29 mph 1017.1mb 59f 57f
11:50 11ft 11s 7s 22 29 mph 1017.3mb 59f 57f
10:50 12.5ft 12s 8s 22 29 mph 1017.1mb 59f 57f
9:50 12ft 10s 8s 25 29 mph 1016.6mb 59f 57f
8:50 12ft 11s 8s 22 29 mph 1016.5mb 59f 57f
7:50 13ft 10s 8s 22 29 mph 1016.2mb 59f 56f
6:50 13ft 12s 8s 25 29 mph 1015.7mb 59f 56f
5:50 14ft 11s 8s 25 29 mph 1015.2mb 59f 57f
4:50 14.5ft 11s 8s 25 31 mph 1015mb 59f 57f
3:50 14ft 12s 8s 27 31 mph 1014.8mb 59f 57f
2:50 16ft 11s 8s 27 31 mph 1014.8mb 59f 57f
1:50 18ft 11s 8s 27 34 mph 1015.2mb 59f 57f
12:50 15.5ft 11s 8s 29 34 mph 1015.1mb 59f 57f
lun 04/25 11:50 16.5ft 11s 8s 31 36 mph 1015mb 59f 57f
10:50 16ft 11s 8s 31 38 mph 1015.2mb 59f 57f
9:50 15ft 11s 8s 31 38 mph 1015.4mb 59f 57f
8:50 15.5ft 11s 8s 34 40 mph 1015mb 59f 57f
7:50 14.5ft 10s 7s 31 40 mph 1014.9mb 59f 57f
6:50 15ft 11s 8s 34 40 mph 1014.6mb 59f 57f
5:50 15ft 10s 8s 34 40 mph 1014.7mb 59f 57f
4:50 16.5ft 11s 8s 34 38 mph 1015.1mb 59f 57f
3:50 15.5ft 11s 8s 31 38 mph 1015.4mb 59f 57f
1:50 16.5ft 11s 8s 31 40 mph 1016mb 59f 57f
12:50 15ft 11s 8s 31 36 mph 1016.4mb 59f 56f
11:50 17ft 10s 8s 31 38 mph 1016.6mb 59f 56f
10:50 15ft 11s 8s 31 38 mph 1016.6mb 59f 56f
9:50 15.5ft 11s 8s 34 40 mph 1016.2mb 59f 56f
8:50 15ft 11s 8s 31 38 mph 1016.3mb 59f 56f
7:50 15.5ft 10s  -  29 36 mph 1016.1mb 59f 56f
6:50 15ft 9s 7s 34 40 mph 1015.4mb 59f 56f
5:50 15.5ft 11s 7s 31 40 mph 1015mb 59f 56f
4:50 15ft 10s 7s 34 38 mph 1014.6mb 59f 56f
3:50 15.5ft 11s 8s 34 43 mph 1014.6mb 59f 57f
2:50 16.5ft 10s 8s 36 45 mph 1014.3mb 59f 57f
1:50 16.5ft 10s 8s 34 43 mph 1014.8mb 59f 57f
12:50 15.5ft 10s 8s 34 40 mph 1015.1mb 60f 57f
dom 04/24 11:50 15.5ft 10s 8s 34 40 mph 1014.8mb 60f 57f
10:50 14ft 10s 7s 31 38 mph 1015.1mb 60f 58f